Home > Products > Valid Products > TAF

000
FTUS43 KBIS 210500
TAFJMS
TAF
KJMS 210521Z 2106/2206 14009KT P6SM SKC
     FM210800 13009KT P6SM SKC WS020/16045KT
     FM211500 15018G29KT P6SM FEW250
     FM220100 15018KT P6SM SCT070 BKN150=



000
FTUS43 KBIS 210500
TAFBIS
TAF
KBIS 210521Z 2106/2206 14008KT P6SM SKC
     FM211500 13009KT P6SM SKC WS020/16040KT
     FM212000 15014G24KT P6SM FEW120 SCT250
     FM220000 15012KT P6SM SCT100 SCT250=



000
FTUS43 KBIS 210500
TAFDIK
TAF
KDIK 210521Z 2106/2206 15009KT P6SM SKC
     FM211800 17013G21KT P6SM SCT250
     FM220000 19008KT P6SM BKN200=



000
FTUS43 KBIS 210500
TAFISN
TAF
KISN 210521Z 2106/2206 14007KT P6SM SKC
     FM211600 11007KT P6SM SCT250
     FM220500 26009KT P6SM SCT100 BKN150=



000
FTUS43 KBIS 210500
TAFMOT
TAF
KMOT 210521Z 2106/2206 13009KT P6SM SKC WS020/17040KT
     FM211600 15015KT P6SM SKC
     FM220000 14008KT P6SM SCT120 BKN250=



000
FTUS43 KBIS 202300
TAFDIK
TAF
KDIK 202320Z 2100/2124 15009KT P6SM SKC
     FM211800 17013G21KT P6SM FEW210=



000
FTUS43 KBIS 202300
TAFJMS
TAF
KJMS 202320Z 2100/2124 13006KT P6SM SKC
     FM210800 13009KT P6SM SKC WS020/16045KT
     FM211500 15018G29KT P6SM FEW250=



000
FTUS43 KBIS 202300
TAFMOT
TAF
KMOT 202320Z 2100/2124 15007KT P6SM SKC
     FM210600 13009KT P6SM SKC WS020/17040KT
     FM211600 15012G22KT P6SM FEW240=



000
FTUS43 KBIS 202300
TAFISN
TAF
KISN 202320Z 2100/2124 15007KT P6SM SKC=



000
FTUS43 KBIS 202300
TAFBIS
TAF
KBIS 202320Z 2100/2124 14008KT P6SM SKC
     FM210600 13007KT P6SM SKC WS020/16040KT
     FM211600 15014G24KT P6SM FEW250=



000
FTUS43 KBIS 201700
TAFJMS
TAF
KJMS 201730Z 2018/2118 16005KT P6SM SKC
     FM210700 14009KT P6SM FEW250
     FM211500 15013G23KT P6SM FEW250=



000
FTUS43 KBIS 201700
TAFISN
TAF
KISN 201730Z 2018/2118 15012KT P6SM SKC
     FM210300 VRB03KT P6SM SKC=



000
FTUS43 KBIS 201700
TAFDIK
TAF
KDIK 201730Z 2018/2118 17013G23KT P6SM SKC
     FM210000 15008KT P6SM SKC=



000
FTUS43 KBIS 201700
TAFMOT
TAF
KMOT 201730Z 2018/2118 17012KT P6SM SKC=



000
FTUS43 KBIS 201700
TAFBIS
TAF
KBIS 201730Z 2018/2118 16007KT P6SM SKC=



000
FTUS43 KBIS 201100
TAFMOT
TAF
KMOT 201131Z 2012/2112 22009KT P6SM SKC
     FM201800 15010KT P6SM SKC
     FM210100 14008KT P6SM SKC=



000
FTUS43 KBIS 201100
TAFBIS
TAF
KBIS 201131Z 2012/2112 VRB03KT P6SM SKC
     FM201800 17009KT P6SM SKC
     FM210100 13009KT P6SM SKC=



000
FTUS43 KBIS 201100
TAFJMS
TAF
KJMS 201131Z 2012/2112 30005KT P6SM SKC
     FM201700 15009KT P6SM SKC=



000
FTUS43 KBIS 201100
TAFDIK
TAF
KDIK 201131Z 2012/2112 18008KT P6SM SKC
     FM201700 17014KT P6SM SKC
     FM210100 15009KT P6SM SKC=



000
FTUS43 KBIS 201100
TAFISN
TAF
KISN 201131Z 2012/2112 VRB03KT P6SM SKC
     FM201500 16009KT P6SM SKC
     FM210100 13005KT P6SM SKC=



000
FTUS43 KBIS 200500
TAFMOT
TAF
KMOT 200535Z 2006/2106 22008KT P6SM SKC
     FM201200 18005KT P6SM SKC
     FM201800 15010KT P6SM SKC
     FM210100 14007KT P6SM SKC=



000
FTUS43 KBIS 200500
TAFJMS
TAF
KJMS 200535Z 2006/2106 30005KT P6SM SKC
     FM201700 15008KT P6SM SKC
     FM210100 13007KT P6SM SKC=



000
FTUS43 KBIS 200500
TAFBIS
TAF
KBIS 200535Z 2006/2106 VRB03KT P6SM SKC
     FM201800 17009KT P6SM SKC
     FM210100 13008KT P6SM SKC=



000
FTUS43 KBIS 200500
TAFISN
TAF
KISN 200535Z 2006/2106 VRB03KT P6SM FEW240
     FM201500 16009KT P6SM SKC=



000
FTUS43 KBIS 200500
TAFDIK
TAF
KDIK 200535Z 2006/2106 18006KT P6SM SKC
     FM201700 16014KT P6SM SKC
     FM210100 14008KT P6SM SKC=



000
FTUS43 KBIS 192300
TAFISN
TAF
KISN 192330Z 2000/2024 20004KT P6SM FEW240
     FM201500 14006KT P6SM SKC
     FM201800 16010KT P6SM SKC=



000
FTUS43 KBIS 192300
TAFMOT
TAF
KMOT 192330Z 2000/2024 30006KT P6SM SKC
     FM200700 24004KT P6SM FEW240
     FM201200 18005KT P6SM SKC
     FM201800 16009KT P6SM SKC=



000
FTUS43 KBIS 192300
TAFBIS
TAF
KBIS 192330Z 2000/2024 34007KT P6SM SKC
     FM200200 VRB03KT P6SM SKC
     FM201800 15008KT P6SM FEW240=



000
FTUS43 KBIS 192300
TAFJMS
TAF
KJMS 192330Z 2000/2024 33008KT P6SM SKC
     FM201100 32004KT P6SM SKC
     FM201700 10004KT P6SM FEW210=



000
FTUS43 KBIS 192300
TAFDIK
TAF
KDIK 192330Z 2000/2024 VRB03KT P6SM SKC
     FM200900 18006KT P6SM FEW250
     FM201700 16011KT P6SM FEW250=



000
FTUS43 KBIS 192300
TAFISN
TAF
KISN 192330Z 2000/2024 20004KT P6SM FEW240
     FM201500 14006KT P6SM SKC
     FM201800 16010KT P6SM SKC=



000
FTUS43 KBIS 192300
TAFBIS
TAF
KBIS 192330Z 2000/2024 34007KT P6SM SKC
     FM200200 VRB03KT P6SM SKC
     FM201800 15008KT P6SM FEW240=



000
FTUS43 KBIS 192300
TAFMOT
TAF
KMOT 192330Z 2000/2024 30006KT P6SM SKC
     FM200700 24004KT P6SM FEW240
     FM201200 18005KT P6SM SKC
     FM201800 16009KT P6SM SKC=



000
FTUS43 KBIS 192300
TAFDIK
TAF
KDIK 192330Z 2000/2024 VRB03KT P6SM SKC
     FM200900 18006KT P6SM FEW250
     FM201700 16011KT P6SM FEW250=



000
FTUS43 KBIS 192300
TAFJMS
TAF
KJMS 192330Z 2000/2024 33008KT P6SM SKC
     FM201100 32004KT P6SM SKC
     FM201700 10004KT P6SM FEW210=



000
FTUS43 KBIS 192000 AAA
TAFBIS
TAF AMD
KBIS 192043Z 1921/2018 30011G18KT P6SM SKC
     FM200000 VRB03KT P6SM FEW250=



000
FTUS43 KBIS 191700
TAFBIS
TAF
KBIS 191720Z 1918/2018 30009KT P6SM SKC
     FM200000 VRB03KT P6SM FEW250=



000
FTUS43 KBIS 191700
TAFJMS
TAF
KJMS 191720Z 1918/2018 31014G20KT P6SM SKC
     FM192300 32009KT P6SM SKC
     FM201600 12004KT P6SM FEW250=



000
FTUS43 KBIS 191700
TAFISN
TAF
KISN 191720Z 1918/2018 29003KT P6SM SKC
     FM201600 15006KT P6SM FEW250=



000
FTUS43 KBIS 191700
TAFDIK
TAF
KDIK 191720Z 1918/2018 30015KT P6SM SKC
     FM200000 00000KT P6SM FEW250
     FM201700 16011KT P6SM FEW250=



000
FTUS43 KBIS 191700
TAFMOT
TAF
KMOT 191720Z 1918/2018 29009KT P6SM SKC
     FM200800 20004KT P6SM FEW250=



000
FTUS43 KBIS 191100
TAFDIK
TAF
KDIK 191126Z 1912/2012 28009KT P6SM SKC
     FM191900 31009KT P6SM SKC
     FM200200 18005KT P6SM SKC=



000
FTUS43 KBIS 191100
TAFISN
TAF
KISN 191126Z 1912/2012 25007KT P6SM SKC
     FM200300 13004KT P6SM SKC=



000
FTUS43 KBIS 191100
TAFBIS
TAF
KBIS 191126Z 1912/2012 28008KT P6SM SKC
     FM191500 31009KT P6SM SKC
     FM200100 35004KT P6SM SKC=



000
FTUS43 KBIS 191100
TAFMOT
TAF
KMOT 191126Z 1912/2012 27009KT P6SM SKC
     FM191700 30010KT P6SM SKC
     FM200200 25005KT P6SM SKC
     FM200900 15005KT P6SM SKC=



000
FTUS43 KBIS 191100
TAFJMS
TAF
KJMS 191126Z 1912/2012 27010KT P6SM SKC
     FM191500 31012KT P6SM SKC
     FM191800 32015G22KT P6SM SKC
     FM200100 31006KT P6SM SKC=



000
FTUS43 KBIS 190500
TAFMOT
TAF
KMOT 190521Z 1906/2006 23010KT P6SM SCT150
     FM190900 27009KT P6SM SCT120
     FM191500 30010KT P6SM SKC
     FM200200 26005KT P6SM SKC=



000
FTUS43 KBIS 190500
TAFJMS
TAF
KJMS 190521Z 1906/2006 19009KT P6SM SCT150 SCT200
     FM190900 22009KT P6SM SCT150
     FM191200 27010KT P6SM SKC
     FM191500 31012KT P6SM SKC
     FM191800 32015G22KT P6SM SKC
     FM200100 31006KT P6SM SKC=



000
FTUS43 KBIS 190500
TAFDIK
TAF
KDIK 190521Z 1906/2006 27009KT P6SM SKC
     FM191400 30011KT P6SM SKC
     FM200100 22003KT P6SM SKC=



000
FTUS43 KBIS 190500
TAFISN
TAF
KISN 190521Z 1906/2006 27007KT P6SM SKC
     FM200300 13004KT P6SM SKC=



000
FTUS43 KBIS 190500
TAFBIS
TAF
KBIS 190521Z 1906/2006 24006KT P6SM SCT150
     FM190900 27006KT P6SM SCT150
     FM191400 31009KT P6SM SKC
     FM200200 35004KT P6SM SKC=



000
FTUS43 KBIS 182300
TAFDIK
TAF
KDIK 182320Z 1900/1924 22009KT P6SM SCT150
     FM191300 29011KT P6SM SKC=



000
FTUS43 KBIS 182300
TAFJMS
TAF
KJMS 182320Z 1900/1924 20008KT P6SM SCT150
     FM191400 30012KT P6SM SKC=



000
FTUS43 KBIS 182300
TAFBIS
TAF
KBIS 182320Z 1900/1924 19008KT P6SM SCT150
     FM191400 30009KT P6SM SKC=



000
FTUS43 KBIS 182300
TAFMOT
TAF
KMOT 182320Z 1900/1924 20010KT P6SM SCT150
     FM191500 30012KT P6SM SKC=



000
FTUS43 KBIS 182300
TAFISN
TAF
KISN 182320Z 1900/1924 25008KT P6SM SCT150=



000
FTUS43 KBIS 182100 AAB
TAFJMS
TAF AMD
KJMS 182123Z 1821/1918 19016KT P6SM OVC012
     FM182200 17013KT P6SM SCT012
     FM190000 16010KT P6SM SCT250
     FM191200 29012KT P6SM FEW150=



000
FTUS43 KBIS 181900 AAA
TAFJMS
TAF AMD
KJMS 181913Z 1819/1918 17012KT P6SM OVC011
     FM182030 16011KT P6SM SCT015
     FM190000 16010KT P6SM SCT250
     FM191200 29012KT P6SM FEW150=



000
FTUS43 KBIS 181700
TAFJMS
TAF
KJMS 181737Z 1818/1918 18010KT P6SM OVC009
     FM182100 16011KT P6SM SCT015
     FM190000 16010KT P6SM SCT250
     FM191200 29012KT P6SM FEW150=



000
FTUS43 KBIS 181700
TAFBIS
TAF
KBIS 181737Z 1818/1918 18013KT P6SM BKN015
     FM181900 17011KT P6SM SCT250
     FM190000 15007KT P6SM SCT120
     FM191400 30007KT P6SM FEW250=



000
FTUS43 KBIS 181700
TAFDIK
TAF
KDIK 181737Z 1818/1918 17015G23KT P6SM FEW250
     FM182300 17010KT P6SM SCT250
     FM190500 24007KT P6SM SCT130=



000
FTUS43 KBIS 181700
TAFMOT
TAF
KMOT 181737Z 1818/1918 16014G22KT P6SM SCT012
     FM181900 16015KT P6SM SCT250
     FM190400 20010KT P6SM SCT120
     FM191600 29010KT P6SM SKC=



000
FTUS43 KBIS 181700
TAFISN
TAF
KISN 181737Z 1818/1918 16010KT P6SM SCT250
     FM190500 25005KT P6SM FEW130=



000
FTUS43 KBIS 181400 AAA
TAFJMS
TAF AMD
KJMS 181456Z 1815/1912 23010KT P6SM OVC006
     FM181800 20012KT P6SM SCT006 OVC012
     FM182000 17015KT P6SM BKN015
     FM182300 18009KT P6SM SCT035 SCT140
     FM191100 24008KT P6SM SCT120=



000
FTUS43 KBIS 181400 AAA
TAFJMS
TAF AMD
KJMS 181456Z 1815/1912 23010KT P6SM OVC006
     FM181800 20012KT P6SM SCT006 OVC012
     FM182000 17015KT P6SM BKN015
     FM182300 18009KT P6SM SCT035 SCT140
     FM191100 24008KT P6SM SCT120=



000
FTUS43 KBIS 181400 AAA
TAFDIK
TAF AMD
KDIK 181414Z 1814/1912 17017KT P6SM SKC
     FM182100 18012KT P6SM SCT120 BKN150
     FM190300 22005KT P6SM SCT120
     FM190700 28008KT P6SM SCT090=



000
FTUS43 KBIS 181400 AAA
TAFMOT
TAF AMD
KMOT 181412Z 1814/1912 15010KT P6SM OVC006
     FM181700 15009KT P6SM SCT008 OVC012
     FM181800 17014KT P6SM SCT020 SCT150
     FM190200 20009KT P6SM SCT120 SCT150
     FM190900 26010KT P6SM SCT100=



000
FTUS43 KBIS 181400 AAA
TAFBIS
TAF AMD
KBIS 181408Z 1814/1912 16010KT P6SM OVC009
     FM181800 16014KT P6SM SCT009 BKN015
     FM181900 16015KT P6SM SCT025
     FM190100 16007KT P6SM SCT120 SCT150
     FM190900 29006KT P6SM SCT100=



000
FTUS43 KBIS 181100
TAFISN
TAF
KISN 181138Z 1812/1912 14009KT P6SM SCT004 SCT250
     FM181800 17010KT P6SM SCT150 BKN200
     FM190300 24005KT P6SM SCT080 BKN100
     FM190600 28006KT P6SM SKC=



000
FTUS43 KBIS 181100
TAFBIS
TAF
KBIS 181138Z 1812/1912 16008KT P6SM OVC015
     FM181800 16014KT P6SM SCT007 BKN015
     FM181900 16015KT P6SM SCT025
     FM190100 16007KT P6SM SCT120 SCT150
     FM190900 29006KT P6SM SCT100=



000
FTUS43 KBIS 181100
TAFJMS
TAF
KJMS 181138Z 1812/1912 14006KT P6SM OVC006
     FM181800 17012KT P6SM BKN025
     FM182000 17015KT P6SM SCT030
     FM190100 18009KT P6SM SCT035 SCT140
     FM191100 24008KT P6SM SCT120=



000
FTUS43 KBIS 181100
TAFDIK
TAF
KDIK 181138Z 1812/1912 16015KT P6SM SCT003
      TEMPO 1812/1814 3SM BR BKN003
     FM181500 16016KT P6SM SCT150
     FM182100 18012KT P6SM SCT120 BKN150
     FM190300 22005KT P6SM SCT120
     FM190700 28008KT P6SM SCT090=



000
FTUS43 KBIS 181100
TAFMOT
TAF
KMOT 181138Z 1812/1912 15007KT P6SM OVC009
     FM181500 15009KT P6SM OVC012
     FM181800 17014KT P6SM SCT020 SCT150
     FM190200 20009KT P6SM SCT120 SCT150
     FM190900 26010KT P6SM SCT100=



000
FTUS43 KBIS 181100
TAFISN
TAF
KISN 181138Z 1812/1912 14009KT P6SM SCT004 SCT250
     FM181800 17010KT P6SM SCT150 BKN200
     FM190300 24005KT P6SM SCT080 BKN100
     FM190600 28006KT P6SM SKC=



000
FTUS43 KBIS 181100
TAFBIS
TAF
KBIS 181138Z 1812/1912 16008KT P6SM OVC015
     FM181800 16014KT P6SM SCT007 BKN015
     FM181900 16015KT P6SM SCT025
     FM190100 16007KT P6SM SCT120 SCT150
     FM190900 29006KT P6SM SCT100=



000
FTUS43 KBIS 181100
TAFJMS
TAF
KJMS 181138Z 1812/1912 14006KT P6SM OVC006
     FM181800 17012KT P6SM BKN025
     FM182000 17015KT P6SM SCT030
     FM190100 18009KT P6SM SCT035 SCT140
     FM191100 24008KT P6SM SCT120=



000
FTUS43 KBIS 181100
TAFDIK
TAF
KDIK 181138Z 1812/1912 16015KT P6SM SCT003
      TEMPO 1812/1814 3SM BR BKN003
     FM181500 16016KT P6SM SCT150
     FM182100 18012KT P6SM SCT120 BKN150
     FM190300 22005KT P6SM SCT120
     FM190700 28008KT P6SM SCT090=



000
FTUS43 KBIS 181100
TAFMOT
TAF
KMOT 181138Z 1812/1912 15007KT P6SM OVC009
     FM181500 15009KT P6SM OVC012
     FM181800 17014KT P6SM SCT020 SCT150
     FM190200 20009KT P6SM SCT120 SCT150
     FM190900 26010KT P6SM SCT100=



000
FTUS43 KBIS 180900 AAA
TAFMOT
TAF AMD
KMOT 180948Z 1810/1906 13005KT P6SM OVC009
     FM181800 17013KT P6SM SCT020 SCT150
     FM190200 20009KT P6SM BKN120=



000
FTUS43 KBIS 180900 AAA
TAFMOT
TAF AMD
KMOT 180948Z 1810/1906 13005KT P6SM OVC009
     FM181800 17013KT P6SM SCT020 SCT150
     FM190200 20009KT P6SM BKN120=



000
FTUS43 KBIS 180800 AAA
TAFDIK
TAF AMD
KDIK 180834Z 1809/1906 16010KT P6SM SCT003
      TEMPO 1809/1811 2SM BR BKN003
     FM181500 16012KT P6SM SCT150
     FM182100 18010KT P6SM SCT120 BKN150
     FM190300 22005KT P6SM SCT120=



000
FTUS43 KBIS 180800 AAA
TAFISN
TAF AMD
KISN 180833Z 1809/1906 14009KT P6SM SCT004
     FM181600 17010KT P6SM SCT150
     FM190300 24005KT P6SM BKN100=



000
FTUS43 KBIS 180800 AAA
TAFBIS
TAF AMD
KBIS 180802Z 1808/1906 18005KT P6SM OVC012
     FM181700 16010KT P6SM SCT007 SCT012
     FM181900 15015KT P6SM SCT025
     FM190100 16007KT P6SM SCT150=



    US Dept of Commerce
    National Oceanic and Atmospheric Administration
    National Weather Service
    1325 East West Highway
    Silver Spring, MD 20910
    Page Author: NWS Internet Services Team
Disclaimer
Information Quality
Credits
Glossary
Privacy Policy
Freedom of Information Act (FOIA)
About Us
Career Opportunities